sensor_id;sensor_type;location;lat;lon;timestamp;P1;durP1;ratioP1;P2;durP2;ratioP2
15936;SDS011;9163;48.818;8.976;2023-04-07T00:00:52;15.93;;;9.63;;
15936;SDS011;9163;48.818;8.976;2023-04-07T00:03:20;15.20;;;9.33;;
15936;SDS011;9163;48.818;8.976;2023-04-07T00:05:49;12.43;;;9.17;;
15936;SDS011;9163;48.818;8.976;2023-04-07T00:08:16;15.33;;;9.63;;
15936;SDS011;9163;48.818;8.976;2023-04-07T00:10:43;13.57;;;8.93;;
15936;SDS011;9163;48.818;8.976;2023-04-07T00:13:11;14.97;;;9.63;;
15936;SDS011;9163;48.818;8.976;2023-04-07T00:15:38;15.03;;;9.60;;
15936;SDS011;9163;48.818;8.976;2023-04-07T00:18:05;15.50;;;10.03;;
15936;SDS011;9163;48.818;8.976;2023-04-07T00:20:33;15.93;;;10.00;;
15936;SDS011;9163;48.818;8.976;2023-04-07T00:23:01;15.20;;;9.80;;
15936;SDS011;9163;48.818;8.976;2023-04-07T00:25:28;15.80;;;10.27;;
15936;SDS011;9163;48.818;8.976;2023-04-07T00:27:55;15.57;;;9.93;;
15936;SDS011;9163;48.818;8.976;2023-04-07T00:30:23;15.67;;;10.17;;
15936;SDS011;9163;48.818;8.976;2023-04-07T00:32:50;18.20;;;10.93;;
15936;SDS011;9163;48.818;8.976;2023-04-07T00:35:17;16.17;;;10.70;;
15936;SDS011;9163;48.818;8.976;2023-04-07T00:37:45;15.50;;;10.30;;
15936;SDS011;9163;48.818;8.976;2023-04-07T00:40:13;16.03;;;10.63;;
15936;SDS011;9163;48.818;8.976;2023-04-07T00:42:41;17.13;;;10.97;;
15936;SDS011;9163;48.818;8.976;2023-04-07T00:45:08;14.90;;;10.00;;
15936;SDS011;9163;48.818;8.976;2023-04-07T00:47:37;16.27;;;11.03;;
15936;SDS011;9163;48.818;8.976;2023-04-07T00:50:04;15.30;;;10.57;;
15936;SDS011;9163;48.818;8.976;2023-04-07T00:52:32;17.90;;;10.60;;
15936;SDS011;9163;48.818;8.976;2023-04-07T00:55:00;17.00;;;11.00;;
15936;SDS011;9163;48.818;8.976;2023-04-07T00:57:29;17.23;;;11.33;;
15936;SDS011;9163;48.818;8.976;2023-04-07T00:59:56;16.03;;;10.40;;
15936;SDS011;9163;48.818;8.976;2023-04-07T01:02:25;16.30;;;10.20;;
15936;SDS011;9163;48.818;8.976;2023-04-07T01:05:00;18.20;;;11.87;;
15936;SDS011;9163;48.818;8.976;2023-04-07T01:07:37;15.63;;;10.20;;
15936;SDS011;9163;48.818;8.976;2023-04-07T01:10:14;15.30;;;10.07;;
15936;SDS011;9163;48.818;8.976;2023-04-07T01:12:50;14.50;;;10.47;;
15936;SDS011;9163;48.818;8.976;2023-04-07T01:15:22;18.67;;;11.30;;
15936;SDS011;9163;48.818;8.976;2023-04-07T01:17:54;18.00;;;11.47;;
15936;SDS011;9163;48.818;8.976;2023-04-07T01:20:27;19.27;;;11.67;;
15936;SDS011;9163;48.818;8.976;2023-04-07T01:23:04;17.77;;;11.13;;
15936;SDS011;9163;48.818;8.976;2023-04-07T01:25:34;16.73;;;11.63;;
15936;SDS011;9163;48.818;8.976;2023-04-07T01:28:26;18.17;;;12.07;;
15936;SDS011;9163;48.818;8.976;2023-04-07T01:31:07;22.03;;;12.30;;
15936;SDS011;9163;48.818;8.976;2023-04-07T01:33:35;19.37;;;11.40;;
15936;SDS011;9163;48.818;8.976;2023-04-07T01:36:04;16.73;;;11.40;;
15936;SDS011;9163;48.818;8.976;2023-04-07T01:38:33;17.13;;;12.13;;
15936;SDS011;9163;48.818;8.976;2023-04-07T01:41:01;18.23;;;11.57;;
15936;SDS011;9163;48.818;8.976;2023-04-07T01:43:29;17.80;;;12.10;;
15936;SDS011;9163;48.818;8.976;2023-04-07T01:45:57;17.50;;;11.33;;
15936;SDS011;9163;48.818;8.976;2023-04-07T01:48:28;16.77;;;11.67;;
15936;SDS011;9163;48.818;8.976;2023-04-07T01:50:56;16.77;;;10.87;;
15936;SDS011;9163;48.818;8.976;2023-04-07T01:53:24;16.53;;;11.47;;
15936;SDS011;9163;48.818;8.976;2023-04-07T01:55:52;16.97;;;10.97;;
15936;SDS011;9163;48.818;8.976;2023-04-07T01:58:19;15.90;;;10.87;;
15936;SDS011;9163;48.818;8.976;2023-04-07T02:00:47;17.30;;;11.80;;
15936;SDS011;9163;48.818;8.976;2023-04-07T02:03:17;17.30;;;10.93;;
15936;SDS011;9163;48.818;8.976;2023-04-07T02:05:51;19.53;;;12.00;;
15936;SDS011;9163;48.818;8.976;2023-04-07T02:08:21;15.70;;;10.90;;
15936;SDS011;9163;48.818;8.976;2023-04-07T02:10:52;15.43;;;11.07;;
15936;SDS011;9163;48.818;8.976;2023-04-07T02:13:22;16.40;;;10.93;;
15936;SDS011;9163;48.818;8.976;2023-04-07T02:15:50;15.17;;;10.67;;
15936;SDS011;9163;48.818;8.976;2023-04-07T02:18:20;15.87;;;10.37;;
15936;SDS011;9163;48.818;8.976;2023-04-07T02:20:50;16.13;;;11.07;;
15936;SDS011;9163;48.818;8.976;2023-04-07T02:23:18;14.83;;;10.83;;
15936;SDS011;9163;48.818;8.976;2023-04-07T02:25:45;17.13;;;10.77;;
15936;SDS011;9163;48.818;8.976;2023-04-07T02:28:12;17.00;;;11.20;;
15936;SDS011;9163;48.818;8.976;2023-04-07T02:30:39;15.67;;;11.10;;
15936;SDS011;9163;48.818;8.976;2023-04-07T02:33:07;16.70;;;10.67;;
15936;SDS011;9163;48.818;8.976;2023-04-07T02:35:34;17.33;;;11.70;;
15936;SDS011;9163;48.818;8.976;2023-04-07T02:38:02;16.23;;;10.97;;
15936;SDS011;9163;48.818;8.976;2023-04-07T02:40:30;17.13;;;11.30;;
15936;SDS011;9163;48.818;8.976;2023-04-07T02:42:57;17.80;;;11.23;;
15936;SDS011;9163;48.818;8.976;2023-04-07T02:45:24;16.53;;;10.60;;
15936;SDS011;9163;48.818;8.976;2023-04-07T02:47:51;16.57;;;11.23;;
15936;SDS011;9163;48.818;8.976;2023-04-07T02:50:19;17.43;;;11.77;;
15936;SDS011;9163;48.818;8.976;2023-04-07T02:52:46;17.83;;;11.60;;
15936;SDS011;9163;48.818;8.976;2023-04-07T02:55:14;18.17;;;11.47;;
15936;SDS011;9163;48.818;8.976;2023-04-07T02:57:42;17.87;;;11.73;;
15936;SDS011;9163;48.818;8.976;2023-04-07T03:00:10;16.87;;;11.50;;
15936;SDS011;9163;48.818;8.976;2023-04-07T03:02:38;16.40;;;11.30;;
15936;SDS011;9163;48.818;8.976;2023-04-07T03:05:05;17.70;;;11.60;;
15936;SDS011;9163;48.818;8.976;2023-04-07T03:07:33;15.63;;;11.43;;
15936;SDS011;9163;48.818;8.976;2023-04-07T03:10:00;16.47;;;10.73;;
15936;SDS011;9163;48.818;8.976;2023-04-07T03:12:29;15.43;;;10.57;;
15936;SDS011;9163;48.818;8.976;2023-04-07T03:14:56;14.70;;;11.10;;
15936;SDS011;9163;48.818;8.976;2023-04-07T03:17:23;17.13;;;10.83;;
15936;SDS011;9163;48.818;8.976;2023-04-07T03:19:50;15.10;;;10.47;;
15936;SDS011;9163;48.818;8.976;2023-04-07T03:22:18;16.40;;;11.50;;
15936;SDS011;9163;48.818;8.976;2023-04-07T03:24:45;19.20;;;11.63;;
15936;SDS011;9163;48.818;8.976;2023-04-07T03:27:12;17.70;;;12.13;;
15936;SDS011;9163;48.818;8.976;2023-04-07T03:29:43;18.37;;;11.27;;
15936;SDS011;9163;48.818;8.976;2023-04-07T03:32:11;18.47;;;12.10;;
15936;SDS011;9163;48.818;8.976;2023-04-07T03:34:38;18.20;;;12.50;;
15936;SDS011;9163;48.818;8.976;2023-04-07T03:37:05;16.27;;;11.30;;
15936;SDS011;9163;48.818;8.976;2023-04-07T03:39:32;18.47;;;11.77;;
15936;SDS011;9163;48.818;8.976;2023-04-07T03:42:01;18.87;;;12.17;;
15936;SDS011;9163;48.818;8.976;2023-04-07T03:44:29;18.53;;;12.17;;
15936;SDS011;9163;48.818;8.976;2023-04-07T03:46:58;17.33;;;11.50;;
15936;SDS011;9163;48.818;8.976;2023-04-07T03:49:25;18.47;;;11.90;;
15936;SDS011;9163;48.818;8.976;2023-04-07T03:51:53;17.60;;;11.30;;
15936;SDS011;9163;48.818;8.976;2023-04-07T03:54:20;18.20;;;12.00;;
15936;SDS011;9163;48.818;8.976;2023-04-07T03:56:47;19.13;;;11.67;;
15936;SDS011;9163;48.818;8.976;2023-04-07T03:59:14;18.50;;;11.97;;
15936;SDS011;9163;48.818;8.976;2023-04-07T04:01:42;15.33;;;11.17;;
15936;SDS011;9163;48.818;8.976;2023-04-07T04:04:10;17.33;;;11.10;;
15936;SDS011;9163;48.818;8.976;2023-04-07T04:06:38;19.10;;;11.30;;
15936;SDS011;9163;48.818;8.976;2023-04-07T04:09:05;17.53;;;12.00;;
15936;SDS011;9163;48.818;8.976;2023-04-07T04:11:32;18.47;;;12.13;;
15936;SDS011;9163;48.818;8.976;2023-04-07T04:14:00;17.13;;;11.57;;
15936;SDS011;9163;48.818;8.976;2023-04-07T04:16:27;15.47;;;11.47;;
15936;SDS011;9163;48.818;8.976;2023-04-07T04:18:55;20.33;;;11.77;;
15936;SDS011;9163;48.818;8.976;2023-04-07T04:21:24;19.80;;;12.77;;
15936;SDS011;9163;48.818;8.976;2023-04-07T04:23:52;15.60;;;11.20;;
15936;SDS011;9163;48.818;8.976;2023-04-07T04:26:19;16.70;;;11.97;;
15936;SDS011;9163;48.818;8.976;2023-04-07T04:28:50;17.63;;;12.37;;
15936;SDS011;9163;48.818;8.976;2023-04-07T04:31:17;18.03;;;12.10;;
15936;SDS011;9163;48.818;8.976;2023-04-07T04:33:44;19.33;;;12.70;;
15936;SDS011;9163;48.818;8.976;2023-04-07T04:36:12;21.40;;;13.00;;
15936;SDS011;9163;48.818;8.976;2023-04-07T04:38:40;17.00;;;12.27;;
15936;SDS011;9163;48.818;8.976;2023-04-07T04:41:07;21.50;;;12.63;;
15936;SDS011;9163;48.818;8.976;2023-04-07T04:43:34;20.23;;;12.67;;
15936;SDS011;9163;48.818;8.976;2023-04-07T04:46:02;19.13;;;12.60;;
15936;SDS011;9163;48.818;8.976;2023-04-07T04:48:29;20.03;;;12.37;;
15936;SDS011;9163;48.818;8.976;2023-04-07T04:50:56;19.30;;;12.47;;
15936;SDS011;9163;48.818;8.976;2023-04-07T04:53:23;21.37;;;12.93;;
15936;SDS011;9163;48.818;8.976;2023-04-07T04:55:52;18.97;;;13.07;;
15936;SDS011;9163;48.818;8.976;2023-04-07T04:58:19;19.83;;;12.80;;
15936;SDS011;9163;48.818;8.976;2023-04-07T05:00:47;18.63;;;12.90;;
15936;SDS011;9163;48.818;8.976;2023-04-07T05:03:14;19.57;;;12.57;;
15936;SDS011;9163;48.818;8.976;2023-04-07T05:05:41;17.03;;;12.03;;
15936;SDS011;9163;48.818;8.976;2023-04-07T05:08:09;18.53;;;12.70;;
15936;SDS011;9163;48.818;8.976;2023-04-07T05:10:37;18.40;;;12.17;;
15936;SDS011;9163;48.818;8.976;2023-04-07T05:13:06;17.47;;;11.60;;
15936;SDS011;9163;48.818;8.976;2023-04-07T05:15:34;20.73;;;12.40;;
15936;SDS011;9163;48.818;8.976;2023-04-07T05:18:01;19.73;;;12.13;;
15936;SDS011;9163;48.818;8.976;2023-04-07T05:20:28;17.63;;;12.27;;
15936;SDS011;9163;48.818;8.976;2023-04-07T05:22:55;19.20;;;11.97;;
15936;SDS011;9163;48.818;8.976;2023-04-07T05:25:23;18.20;;;11.93;;
15936;SDS011;9163;48.818;8.976;2023-04-07T05:27:50;15.27;;;10.80;;
15936;SDS011;9163;48.818;8.976;2023-04-07T05:30:18;15.90;;;11.93;;
15936;SDS011;9163;48.818;8.976;2023-04-07T05:32:46;19.03;;;12.17;;
15936;SDS011;9163;48.818;8.976;2023-04-07T05:35:13;20.23;;;12.30;;
15936;SDS011;9163;48.818;8.976;2023-04-07T05:37:40;17.00;;;11.67;;
15936;SDS011;9163;48.818;8.976;2023-04-07T05:40:08;20.03;;;11.77;;
15936;SDS011;9163;48.818;8.976;2023-04-07T05:42:35;16.63;;;11.60;;
15936;SDS011;9163;48.818;8.976;2023-04-07T05:45:03;15.20;;;11.83;;
15936;SDS011;9163;48.818;8.976;2023-04-07T05:47:32;17.07;;;11.20;;
15936;SDS011;9163;48.818;8.976;2023-04-07T05:49:59;17.67;;;11.60;;
15936;SDS011;9163;48.818;8.976;2023-04-07T05:52:26;17.83;;;12.40;;
15936;SDS011;9163;48.818;8.976;2023-04-07T05:54:54;17.00;;;12.00;;
15936;SDS011;9163;48.818;8.976;2023-04-07T05:57:21;17.87;;;12.70;;
15936;SDS011;9163;48.818;8.976;2023-04-07T05:59:48;19.20;;;12.27;;
15936;SDS011;9163;48.818;8.976;2023-04-07T06:02:16;16.77;;;11.53;;
15936;SDS011;9163;48.818;8.976;2023-04-07T06:04:45;17.63;;;12.03;;
15936;SDS011;9163;48.818;8.976;2023-04-07T06:07:12;17.27;;;11.33;;
15936;SDS011;9163;48.818;8.976;2023-04-07T06:09:39;16.80;;;11.43;;
15936;SDS011;9163;48.818;8.976;2023-04-07T06:12:07;16.67;;;11.63;;
15936;SDS011;9163;48.818;8.976;2023-04-07T06:14:36;16.97;;;12.27;;
15936;SDS011;9163;48.818;8.976;2023-04-07T06:17:03;17.53;;;11.70;;
15936;SDS011;9163;48.818;8.976;2023-04-07T06:19:31;16.27;;;11.70;;
15936;SDS011;9163;48.818;8.976;2023-04-07T06:22:00;18.03;;;12.00;;
15936;SDS011;9163;48.818;8.976;2023-04-07T06:24:27;16.37;;;11.30;;
15936;SDS011;9163;48.818;8.976;2023-04-07T06:26:54;17.13;;;11.33;;
15936;SDS011;9163;48.818;8.976;2023-04-07T06:29:22;17.23;;;11.53;;
15936;SDS011;9163;48.818;8.976;2023-04-07T06:31:49;13.47;;;9.90;;
15936;SDS011;9163;48.818;8.976;2023-04-07T06:34:16;14.60;;;10.53;;
15936;SDS011;9163;48.818;8.976;2023-04-07T06:36:43;15.33;;;10.73;;
15936;SDS011;9163;48.818;8.976;2023-04-07T06:39:12;16.50;;;10.93;;
15936;SDS011;9163;48.818;8.976;2023-04-07T06:41:39;16.63;;;11.17;;
15936;SDS011;9163;48.818;8.976;2023-04-07T06:44:08;13.63;;;10.10;;
15936;SDS011;9163;48.818;8.976;2023-04-07T06:46:35;13.50;;;9.57;;
15936;SDS011;9163;48.818;8.976;2023-04-07T06:49:03;14.27;;;10.20;;
15936;SDS011;9163;48.818;8.976;2023-04-07T06:51:30;12.63;;;9.93;;
15936;SDS011;9163;48.818;8.976;2023-04-07T06:53:57;12.17;;;8.43;;
15936;SDS011;9163;48.818;8.976;2023-04-07T06:56:26;12.33;;;7.53;;
15936;SDS011;9163;48.818;8.976;2023-04-07T06:58:53;11.23;;;8.30;;
15936;SDS011;9163;48.818;8.976;2023-04-07T07:01:20;12.17;;;8.93;;
15936;SDS011;9163;48.818;8.976;2023-04-07T07:03:48;10.37;;;7.97;;
15936;SDS011;9163;48.818;8.976;2023-04-07T07:06:15;11.70;;;8.20;;
15936;SDS011;9163;48.818;8.976;2023-04-07T07:08:42;10.80;;;8.47;;
15936;SDS011;9163;48.818;8.976;2023-04-07T07:11:09;10.73;;;8.13;;
15936;SDS011;9163;48.818;8.976;2023-04-07T07:13:38;11.33;;;8.20;;
15936;SDS011;9163;48.818;8.976;2023-04-07T07:16:05;11.03;;;7.80;;
15936;SDS011;9163;48.818;8.976;2023-04-07T07:18:32;9.50;;;7.30;;
15936;SDS011;9163;48.818;8.976;2023-04-07T07:21:01;9.77;;;7.43;;
15936;SDS011;9163;48.818;8.976;2023-04-07T07:23:28;9.07;;;7.10;;
15936;SDS011;9163;48.818;8.976;2023-04-07T07:25:55;9.67;;;6.80;;
15936;SDS011;9163;48.818;8.976;2023-04-07T07:28:23;8.57;;;6.50;;
15936;SDS011;9163;48.818;8.976;2023-04-07T07:30:51;8.83;;;6.73;;
15936;SDS011;9163;48.818;8.976;2023-04-07T07:33:18;7.77;;;5.67;;
15936;SDS011;9163;48.818;8.976;2023-04-07T07:35:47;10.13;;;5.70;;
15936;SDS011;9163;48.818;8.976;2023-04-07T07:38:14;5.27;;;4.60;;
15936;SDS011;9163;48.818;8.976;2023-04-07T07:40:41;7.63;;;4.50;;
15936;SDS011;9163;48.818;8.976;2023-04-07T07:43:08;6.30;;;4.40;;
15936;SDS011;9163;48.818;8.976;2023-04-07T07:45:36;4.80;;;3.93;;
15936;SDS011;9163;48.818;8.976;2023-04-07T07:48:05;5.50;;;4.17;;
15936;SDS011;9163;48.818;8.976;2023-04-07T07:50:32;5.40;;;3.87;;
15936;SDS011;9163;48.818;8.976;2023-04-07T07:53:00;4.53;;;3.93;;
15936;SDS011;9163;48.818;8.976;2023-04-07T07:55:27;5.73;;;3.90;;
15936;SDS011;9163;48.818;8.976;2023-04-07T07:57:54;5.60;;;5.00;;
15936;SDS011;9163;48.818;8.976;2023-04-07T08:00:21;6.23;;;4.13;;
15936;SDS011;9163;48.818;8.976;2023-04-07T08:02:49;5.93;;;4.23;;
15936;SDS011;9163;48.818;8.976;2023-04-07T08:05:17;5.60;;;4.13;;
15936;SDS011;9163;48.818;8.976;2023-04-07T08:07:45;6.83;;;4.60;;
15936;SDS011;9163;48.818;8.976;2023-04-07T08:10:13;5.97;;;4.10;;
15936;SDS011;9163;48.818;8.976;2023-04-07T08:12:40;4.77;;;4.10;;
15936;SDS011;9163;48.818;8.976;2023-04-07T08:15:08;6.87;;;4.37;;
15936;SDS011;9163;48.818;8.976;2023-04-07T08:17:35;5.87;;;3.80;;
15936;SDS011;9163;48.818;8.976;2023-04-07T08:20:03;4.63;;;4.00;;
15936;SDS011;9163;48.818;8.976;2023-04-07T08:22:34;4.93;;;3.30;;
15936;SDS011;9163;48.818;8.976;2023-04-07T08:25:01;4.93;;;3.40;;
15936;SDS011;9163;48.818;8.976;2023-04-07T08:27:29;5.67;;;2.97;;
15936;SDS011;9163;48.818;8.976;2023-04-07T08:29:59;3.90;;;2.90;;
15936;SDS011;9163;48.818;8.976;2023-04-07T08:32:32;5.40;;;2.93;;
15936;SDS011;9163;48.818;8.976;2023-04-07T08:35:01;5.47;;;2.50;;
15936;SDS011;9163;48.818;8.976;2023-04-07T08:37:29;4.60;;;2.70;;
15936;SDS011;9163;48.818;8.976;2023-04-07T08:39:57;7.43;;;2.97;;
15936;SDS011;9163;48.818;8.976;2023-04-07T08:42:26;4.90;;;2.90;;
15936;SDS011;9163;48.818;8.976;2023-04-07T08:44:55;6.60;;;3.10;;
15936;SDS011;9163;48.818;8.976;2023-04-07T08:47:24;5.17;;;2.50;;
15936;SDS011;9163;48.818;8.976;2023-04-07T08:49:53;5.17;;;2.73;;
15936;SDS011;9163;48.818;8.976;2023-04-07T08:52:27;6.03;;;3.10;;
15936;SDS011;9163;48.818;8.976;2023-04-07T08:55:00;6.27;;;2.80;;
15936;SDS011;9163;48.818;8.976;2023-04-07T08:57:31;5.47;;;2.77;;
15936;SDS011;9163;48.818;8.976;2023-04-07T08:59:59;6.20;;;2.70;;
15936;SDS011;9163;48.818;8.976;2023-04-07T09:02:30;4.17;;;2.40;;
15936;SDS011;9163;48.818;8.976;2023-04-07T09:04:59;4.43;;;2.50;;
15936;SDS011;9163;48.818;8.976;2023-04-07T09:07:26;5.73;;;2.63;;
15936;SDS011;9163;48.818;8.976;2023-04-07T09:09:54;5.37;;;2.50;;
15936;SDS011;9163;48.818;8.976;2023-04-07T09:12:22;4.27;;;2.37;;
15936;SDS011;9163;48.818;8.976;2023-04-07T09:14:51;6.00;;;2.70;;
15936;SDS011;9163;48.818;8.976;2023-04-07T09:17:18;5.60;;;2.70;;
15936;SDS011;9163;48.818;8.976;2023-04-07T09:19:46;6.87;;;2.30;;
15936;SDS011;9163;48.818;8.976;2023-04-07T09:22:13;3.30;;;2.53;;
15936;SDS011;9163;48.818;8.976;2023-04-07T09:24:41;3.23;;;2.50;;
15936;SDS011;9163;48.818;8.976;2023-04-07T09:27:08;5.13;;;2.30;;
15936;SDS011;9163;48.818;8.976;2023-04-07T09:29:41;4.80;;;2.30;;
15936;SDS011;9163;48.818;8.976;2023-04-07T09:32:10;3.17;;;2.23;;
15936;SDS011;9163;48.818;8.976;2023-04-07T09:34:39;5.03;;;2.20;;
15936;SDS011;9163;48.818;8.976;2023-04-07T09:37:07;3.40;;;1.83;;
15936;SDS011;9163;48.818;8.976;2023-04-07T09:39:47;3.50;;;1.70;;
15936;SDS011;9163;48.818;8.976;2023-04-07T09:42:16;4.20;;;1.93;;
15936;SDS011;9163;48.818;8.976;2023-04-07T09:44:44;5.07;;;1.80;;
15936;SDS011;9163;48.818;8.976;2023-04-07T09:47:12;3.73;;;2.20;;
15936;SDS011;9163;48.818;8.976;2023-04-07T09:49:47;5.50;;;3.13;;
15936;SDS011;9163;48.818;8.976;2023-04-07T09:52:16;4.87;;;3.43;;
15936;SDS011;9163;48.818;8.976;2023-04-07T09:54:45;6.23;;;3.60;;
15936;SDS011;9163;48.818;8.976;2023-04-07T09:57:13;5.80;;;3.40;;
15936;SDS011;9163;48.818;8.976;2023-04-07T09:59:43;5.10;;;3.20;;
15936;SDS011;9163;48.818;8.976;2023-04-07T10:02:13;6.67;;;2.93;;
15936;SDS011;9163;48.818;8.976;2023-04-07T10:04:40;6.70;;;2.60;;
15936;SDS011;9163;48.818;8.976;2023-04-07T10:07:08;4.17;;;2.27;;
15936;SDS011;9163;48.818;8.976;2023-04-07T10:09:35;5.83;;;2.10;;
15936;SDS011;9163;48.818;8.976;2023-04-07T10:12:02;2.90;;;1.60;;
15936;SDS011;9163;48.818;8.976;2023-04-07T10:14:32;4.90;;;1.70;;
15936;SDS011;9163;48.818;8.976;2023-04-07T10:17:03;3.93;;;1.83;;
15936;SDS011;9163;48.818;8.976;2023-04-07T10:19:31;3.83;;;1.70;;
15936;SDS011;9163;48.818;8.976;2023-04-07T10:22:00;3.70;;;1.73;;
15936;SDS011;9163;48.818;8.976;2023-04-07T10:24:35;3.97;;;1.93;;
15936;SDS011;9163;48.818;8.976;2023-04-07T10:27:10;3.37;;;1.70;;
15936;SDS011;9163;48.818;8.976;2023-04-07T10:29:42;4.17;;;1.70;;
15936;SDS011;9163;48.818;8.976;2023-04-07T10:32:16;6.53;;;1.97;;
15936;SDS011;9163;48.818;8.976;2023-04-07T10:34:55;3.90;;;1.90;;
15936;SDS011;9163;48.818;8.976;2023-04-07T10:37:24;4.37;;;2.00;;
15936;SDS011;9163;48.818;8.976;2023-04-07T10:42:54;2.87;;;1.70;;
15936;SDS011;9163;48.818;8.976;2023-04-07T10:48:24;3.13;;;1.80;;
15936;SDS011;9163;48.818;8.976;2023-04-07T10:51:10;3.93;;;1.80;;
15936;SDS011;9163;48.818;8.976;2023-04-07T10:57:06;2.93;;;2.03;;
15936;SDS011;9163;48.818;8.976;2023-04-07T10:59:38;4.87;;;2.03;;
15936;SDS011;9163;48.818;8.976;2023-04-07T11:02:31;4.93;;;1.80;;
15936;SDS011;9163;48.818;8.976;2023-04-07T11:05:00;4.10;;;2.00;;
15936;SDS011;9163;48.818;8.976;2023-04-07T11:10:15;3.20;;;1.70;;
15936;SDS011;9163;48.818;8.976;2023-04-07T11:12:44;6.97;;;2.20;;
15936;SDS011;9163;48.818;8.976;2023-04-07T11:15:33;6.17;;;2.10;;
15936;SDS011;9163;48.818;8.976;2023-04-07T11:18:14;3.77;;;2.00;;
15936;SDS011;9163;48.818;8.976;2023-04-07T11:20:53;7.30;;;2.30;;
15936;SDS011;9163;48.818;8.976;2023-04-07T11:23:22;2.83;;;1.90;;
15936;SDS011;9163;48.818;8.976;2023-04-07T11:25:58;5.77;;;2.27;;
15936;SDS011;9163;48.818;8.976;2023-04-07T11:28:27;5.13;;;2.20;;
15936;SDS011;9163;48.818;8.976;2023-04-07T11:30:54;4.13;;;2.20;;
15936;SDS011;9163;48.818;8.976;2023-04-07T11:33:25;5.30;;;3.53;;
15936;SDS011;9163;48.818;8.976;2023-04-07T11:36:06;5.37;;;3.43;;
15936;SDS011;9163;48.818;8.976;2023-04-07T12:23:14;8.27;;;5.37;;
15936;SDS011;9163;48.818;8.976;2023-04-07T12:25:42;7.53;;;4.93;;
15936;SDS011;9163;48.818;8.976;2023-04-07T12:28:10;7.63;;;5.33;;
15936;SDS011;9163;48.818;8.976;2023-04-07T12:30:37;7.23;;;5.40;;
15936;SDS011;9163;48.818;8.976;2023-04-07T12:33:04;7.80;;;5.40;;
15936;SDS011;9163;48.818;8.976;2023-04-07T12:38:23;9.37;;;5.97;;
15936;SDS011;9163;48.818;8.976;2023-04-07T12:40:52;7.03;;;5.07;;
15936;SDS011;9163;48.818;8.976;2023-04-07T12:43:19;8.00;;;5.57;;
15936;SDS011;9163;48.818;8.976;2023-04-07T12:45:46;7.70;;;5.70;;
15936;SDS011;9163;48.818;8.976;2023-04-07T12:48:13;8.17;;;5.80;;
15936;SDS011;9163;48.818;8.976;2023-04-07T12:50:41;6.90;;;5.40;;
15936;SDS011;9163;48.818;8.976;2023-04-07T12:53:08;8.40;;;4.60;;
15936;SDS011;9163;48.818;8.976;2023-04-07T12:55:35;6.93;;;4.17;;
15936;SDS011;9163;48.818;8.976;2023-04-07T12:58:04;7.13;;;4.87;;
15936;SDS011;9163;48.818;8.976;2023-04-07T13:02:01;7.33;;;5.23;;
15936;SDS011;9163;48.818;8.976;2023-04-07T13:03:52;8.00;;;4.90;;
15936;SDS011;9163;48.818;8.976;2023-04-07T13:06:20;5.70;;;4.40;;
15936;SDS011;9163;48.818;8.976;2023-04-07T13:08:47;5.57;;;4.60;;
15936;SDS011;9163;48.818;8.976;2023-04-07T13:11:15;6.23;;;5.10;;
15936;SDS011;9163;48.818;8.976;2023-04-07T13:13:43;6.97;;;4.80;;
15936;SDS011;9163;48.818;8.976;2023-04-07T13:16:10;6.77;;;4.90;;
15936;SDS011;9163;48.818;8.976;2023-04-07T13:18:38;6.27;;;4.93;;
15936;SDS011;9163;48.818;8.976;2023-04-07T13:21:05;6.30;;;4.53;;
15936;SDS011;9163;48.818;8.976;2023-04-07T13:23:32;6.53;;;4.67;;
15936;SDS011;9163;48.818;8.976;2023-04-07T13:25:59;6.20;;;4.30;;
15936;SDS011;9163;48.818;8.976;2023-04-07T13:28:26;7.93;;;5.07;;
15936;SDS011;9163;48.818;8.976;2023-04-07T13:30:55;5.50;;;4.20;;
15936;SDS011;9163;48.818;8.976;2023-04-07T13:33:22;5.10;;;4.40;;
15936;SDS011;9163;48.818;8.976;2023-04-07T13:35:49;6.50;;;4.33;;
15936;SDS011;9163;48.818;8.976;2023-04-07T13:38:17;7.73;;;4.43;;
15936;SDS011;9163;48.818;8.976;2023-04-07T13:40:44;5.90;;;4.07;;
15936;SDS011;9163;48.818;8.976;2023-04-07T13:43:14;6.70;;;3.90;;
15936;SDS011;9163;48.818;8.976;2023-04-07T13:45:43;4.63;;;3.80;;
15936;SDS011;9163;48.818;8.976;2023-04-07T13:48:12;4.93;;;3.70;;
15936;SDS011;9163;48.818;8.976;2023-04-07T13:50:40;5.63;;;4.07;;
15936;SDS011;9163;48.818;8.976;2023-04-07T13:53:07;4.00;;;3.60;;
15936;SDS011;9163;48.818;8.976;2023-04-07T13:55:34;7.33;;;4.53;;
15936;SDS011;9163;48.818;8.976;2023-04-07T13:58:02;7.33;;;4.47;;
15936;SDS011;9163;48.818;8.976;2023-04-07T14:00:29;6.20;;;4.37;;
15936;SDS011;9163;48.818;8.976;2023-04-07T14:02:56;6.47;;;4.10;;
15936;SDS011;9163;48.818;8.976;2023-04-07T14:05:25;5.70;;;3.63;;
15936;SDS011;9163;48.818;8.976;2023-04-07T14:07:52;6.33;;;3.60;;
15936;SDS011;9163;48.818;8.976;2023-04-07T14:10:20;7.33;;;4.03;;
15936;SDS011;9163;48.818;8.976;2023-04-07T14:12:47;6.43;;;4.37;;
15936;SDS011;9163;48.818;8.976;2023-04-07T14:15:14;4.33;;;3.90;;
15936;SDS011;9163;48.818;8.976;2023-04-07T14:17:41;4.83;;;3.57;;
15936;SDS011;9163;48.818;8.976;2023-04-07T14:20:09;5.83;;;3.33;;
15936;SDS011;9163;48.818;8.976;2023-04-07T14:22:37;5.57;;;3.20;;
15936;SDS011;9163;48.818;8.976;2023-04-07T14:25:05;5.60;;;3.87;;
15936;SDS011;9163;48.818;8.976;2023-04-07T14:27:33;6.70;;;3.70;;
15936;SDS011;9163;48.818;8.976;2023-04-07T14:30:00;5.20;;;3.60;;
15936;SDS011;9163;48.818;8.976;2023-04-07T14:32:27;4.23;;;3.13;;
15936;SDS011;9163;48.818;8.976;2023-04-07T14:34:54;5.33;;;3.40;;
15936;SDS011;9163;48.818;8.976;2023-04-07T14:37:23;4.97;;;3.27;;
15936;SDS011;9163;48.818;8.976;2023-04-07T14:39:52;5.30;;;3.60;;
15936;SDS011;9163;48.818;8.976;2023-04-07T14:42:19;5.23;;;3.40;;
15936;SDS011;9163;48.818;8.976;2023-04-07T14:44:46;5.43;;;3.33;;
15936;SDS011;9163;48.818;8.976;2023-04-07T14:47:14;4.77;;;3.40;;
15936;SDS011;9163;48.818;8.976;2023-04-07T14:49:41;5.53;;;3.73;;
15936;SDS011;9163;48.818;8.976;2023-04-07T14:52:08;7.03;;;4.60;;
15936;SDS011;9163;48.818;8.976;2023-04-07T14:54:38;9.07;;;4.60;;
15936;SDS011;9163;48.818;8.976;2023-04-07T14:57:06;6.70;;;5.10;;
15936;SDS011;9163;48.818;8.976;2023-04-07T14:59:33;8.37;;;4.60;;
15936;SDS011;9163;48.818;8.976;2023-04-07T15:02:19;5.27;;;4.20;;
15936;SDS011;9163;48.818;8.976;2023-04-07T15:04:46;9.03;;;4.93;;
15936;SDS011;9163;48.818;8.976;2023-04-07T15:07:14;6.97;;;4.00;;
15936;SDS011;9163;48.818;8.976;2023-04-07T15:09:41;8.60;;;4.43;;
15936;SDS011;9163;48.818;8.976;2023-04-07T15:12:09;5.50;;;4.10;;
15936;SDS011;9163;48.818;8.976;2023-04-07T15:14:37;5.70;;;4.40;;
15936;SDS011;9163;48.818;8.976;2023-04-07T15:17:04;4.90;;;3.80;;
15936;SDS011;9163;48.818;8.976;2023-04-07T15:19:31;6.47;;;3.63;;
15936;SDS011;9163;48.818;8.976;2023-04-07T15:21:59;5.30;;;3.70;;
15936;SDS011;9163;48.818;8.976;2023-04-07T15:24:26;6.27;;;4.00;;
15936;SDS011;9163;48.818;8.976;2023-04-07T15:26:53;4.33;;;3.70;;
15936;SDS011;9163;48.818;8.976;2023-04-07T15:29:22;5.57;;;3.70;;
15936;SDS011;9163;48.818;8.976;2023-04-07T15:31:49;4.87;;;3.70;;
15936;SDS011;9163;48.818;8.976;2023-04-07T15:34:16;5.53;;;4.10;;
15936;SDS011;9163;48.818;8.976;2023-04-07T15:36:43;6.93;;;4.20;;
15936;SDS011;9163;48.818;8.976;2023-04-07T15:39:11;5.03;;;3.83;;
15936;SDS011;9163;48.818;8.976;2023-04-07T15:41:38;5.30;;;3.70;;
15936;SDS011;9163;48.818;8.976;2023-04-07T15:44:05;5.27;;;3.93;;
15936;SDS011;9163;48.818;8.976;2023-04-07T15:49:32;6.10;;;3.90;;
15936;SDS011;9163;48.818;8.976;2023-04-07T15:52:01;6.07;;;3.63;;
15936;SDS011;9163;48.818;8.976;2023-04-07T15:54:30;7.73;;;3.53;;
15936;SDS011;9163;48.818;8.976;2023-04-07T15:56:57;5.53;;;3.50;;
15936;SDS011;9163;48.818;8.976;2023-04-07T15:59:25;6.63;;;3.60;;